Sigfox identifier Datetime Temperature Humidity SNR
002F13CD 2019-06-03 16:20:15 19.1 46 11.9
002F13CD 2019-06-03 15:11:47 18.2 48 12.1
002F13CD 2019-06-03 14:03:11 17 51 12.3
002F13CD 2019-06-03 10:37:31 12.3 47 12.5
002F13CD 2019-06-03 09:28:53 11.2 43 12.6
002F13CD 2019-06-03 08:20:19 10.9 41 12.8
002F13CD 2019-06-03 07:11:46 11.2 40 12.6
002F13CD 2019-06-03 06:03:13 11.8 39 12.6
002F13CD 2019-06-03 04:54:40 12.9 39 12.5
002F13CD 2019-06-03 03:46:11 14 40 12.5
002F13CD 2019-06-03 02:37:43 15.1 41 12.6
002F13CD 2019-06-03 01:29:17 16.1 42 12.5
002F13CD 2019-06-03 00:20:53 17.2 44 12.5
002F13CD 2019-06-02 23:12:26 18 46 12.6
002F13CD 2019-06-02 22:03:59 18.5 48 12.7
002F13CD 2019-06-02 20:55:34 18.5 50 12.7
002F13CD 2019-06-02 19:47:08 18 50 12.6
002F13CD 2019-06-02 18:38:44 17.2 50 12.6
002F13CD 2019-06-02 17:30:18 15.9 49 12.6
002F13CD 2019-06-02 16:21:44 14.6 47 12.7
002F13CD 2019-06-02 15:13:08 13.8 44 12.8
002F13CD 2019-06-02 14:04:32 13.1 43 12.8
002F13CD 2019-06-02 12:55:53 13 42 13.7
002F13CD 2019-06-02 11:47:16 12.9 42 13.8
002F13CD 2019-06-02 10:38:39 12.9 41 13.9
002F13CD 2019-06-02 09:30:01 12.9 41 14.5
002F13CD 2019-06-02 08:21:27 13 40 14.4
002F13CD 2019-06-02 07:12:45 13.1 39 14.7
002F13CD 2019-06-02 06:04:06 13.4 39 14.8
002F13CD 2019-06-02 04:55:28 13.8 38 14.9
002F13CD 2019-06-02 03:46:50 14.2 38 14.9
002F13CD 2019-06-02 02:38:15 14.6 37 15
002F13CD 2019-06-02 01:29:40 15.3 37 15.2
002F13CD 2019-06-02 00:21:07 16.1 37 15.3
002F13CD 2019-06-01 23:12:35 16.8 37 15.4
002F13CD 2019-06-01 22:04:03 17.6 37 18.7
002F13CD 2019-06-01 20:55:31 18.4 38 18.7
002F13CD 2019-06-01 19:47:03 19.1 39 20.4
002F13CD 2019-06-01 18:38:35 19.3 40 21.7
002F13CD 2019-06-01 17:30:06 19.3 40 22.2
002F13CD 2019-06-01 16:21:39 19 40 23.1
002F13CD 2019-06-01 15:13:08 18.7 40 23.8
002F13CD 2019-06-01 14:04:35 18 38 24.4
002F13CD 2019-06-01 12:56:02 17.8 37 24.9
002F13CD 2019-06-01 11:47:31 17.8 36 25.2
002F13CD 2019-06-01 10:38:58 18 35 25.4
002F13CD 2019-06-01 09:30:35 18.3 34 25.6
002F13CD 2019-06-01 08:22:11 18.7 34 25.8
002F13CD 2019-06-01 07:13:46 18.9 34 26
002F13CD 2019-06-01 06:05:23 18.9 34 26.4
002F13CD 2019-06-01 04:56:59 19 34 26.6
002F13CD 2019-06-01 03:48:37 19.1 34 27
002F13CD 2019-06-01 02:40:15 19.1 34 27
002F13CD 2019-06-01 01:31:52 19.3 34 27.3
002F13CD 2019-06-01 00:23:29 19.3 34 27.6
002F13CD 2019-05-31 23:15:07 19.7 34 27.9
002F13CD 2019-05-31 22:06:45 19.9 34 28.1
002F13CD 2019-05-31 20:58:23 20.2 35 28.4
002F13CD 2019-05-31 19:50:00 20.2 35 28.6
002F13CD 2019-05-31 18:41:37 20.5 36 28.7
002F13CD 2019-05-31 17:33:12 20.8 36 28.7
002F13CD 2019-05-31 16:24:49 21.2 38 28.7
002F13CD 2019-05-31 14:08:04 21 39 28.6
002F13CD 2019-05-31 12:59:43 21.1 40 28.6
002F13CD 2019-05-31 11:51:21 20.9 40 28.8
002F13CD 2019-05-31 10:42:57 20.8 39 28.8
002F13CD 2019-05-31 09:34:35 20.8 39 28.8
002F13CD 2019-05-31 08:26:11 20.7 39 28.8
002F13CD 2019-05-31 07:17:46 20.6 39 28.6
002F13CD 2019-05-31 06:09:22 20.6 39 28.7
002F13CD 2019-05-31 05:00:55 20.6 39 28.8
002F13CD 2019-05-31 03:52:30 20.6 39 28.9
002F13CD 2019-05-31 02:44:06 20.6 39 28.8
002F13CD 2019-05-31 01:35:41 20.6 40 28.9
002F13CD 2019-05-31 00:27:18 20.5 40 28.9
002F13CD 2019-05-30 23:18:54 20.5 40 28.9
002F13CD 2019-05-30 22:10:30 20.4 40 29.1
002F13CD 2019-05-30 21:02:06 20.4 41 28.9
002F13CD 2019-05-30 19:53:41 20.4 41 28.9
002F13CD 2019-05-30 18:45:15 20.4 41 28.9
002F13CD 2019-05-30 17:36:49 20.4 42 28.8
002F13CD 2019-05-30 16:28:25 20.4 42 28.6
002F13CD 2019-05-30 15:19:59 20.4 42 28.6
002F13CD 2019-05-30 14:11:34 20.6 43 28.8
002F13CD 2019-05-30 13:03:09 20.6 43 28.8
002F13CD 2019-05-30 11:54:42 20.6 43 28.9
002F13CD 2019-05-30 10:46:19 20.6 43 29.1
002F13CD 2019-05-30 09:37:55 20.6 44 29.1
002F13CD 2019-05-30 08:29:30 20.7 44 29.1
002F13CD 2019-05-30 07:21:08 20.7 44 29
002F13CD 2019-05-30 06:12:45 20.8 44 29
002F13CD 2019-05-30 05:04:23 20.8 45 29
002F13CD 2019-05-30 03:56:01 20.9 45 29.2
002F13CD 2019-05-30 02:47:39 21 45 29.2
002F13CD 2019-05-30 01:39:17 21 46 29.2
002F13CD 2019-05-30 00:30:55 21 46 29.2
002F13CD 2019-05-29 23:22:34 21.2 47 29.3
002F13CD 2019-05-29 22:14:13 21.2 47 29.4
002F13CD 2019-05-29 21:05:52 21.3 47 29.2
002F13CD 2019-05-29 19:57:30 21.4 48 29.3
002F13CD 2019-05-29 18:49:08 21.5 48 29.1
002F13CD 2019-05-29 17:40:43 21.9 48 28.9
002F13CD 2019-05-29 16:32:22 22.1 48 29.1
002F13CD 2019-05-29 15:23:59 22.7 48 29.1
002F13CD 2019-05-29 14:15:37 22.9 45 29
002F13CD 2019-05-29 13:07:13 22.1 47 29
002F13CD 2019-05-29 11:58:50 22.5 47 29
002F13CD 2019-05-29 10:50:29 22.3 50 29
002F13CD 2019-05-29 09:42:06 21.3 51 28.9
002F13CD 2019-05-29 08:33:43 21 51 28.9
002F13CD 2019-05-29 07:25:21 21.3 48 28.9
002F13CD 2019-05-29 06:16:57 21.4 47 28.8
002F13CD 2019-05-29 05:08:33 21.4 47 28.7
002F13CD 2019-05-29 04:00:07 21.4 47 28.6
002F13CD 2019-05-29 02:51:42 21.4 47 28.7
002F13CD 2019-05-29 01:43:16 21.4 47 28.6
002F13CD 2019-05-29 00:34:51 21.4 47 28.6
002F13CD 2019-05-28 23:26:25 21.4 47 28.6
002F13CD 2019-05-28 22:17:59 21.4 47 28.6
002F13CD 2019-05-28 21:09:33 21.5 46 28.6
002F13CD 2019-05-28 20:01:05 21.7 46 28.4
002F13CD 2019-05-28 18:52:40 21.9 46 28.3
002F13CD 2019-05-28 17:44:14 22.3 45 28.3
002F13CD 2019-05-28 16:35:50 22.7 44 28.5
002F13CD 2019-05-28 15:27:29 22.9 44 28.5
002F13CD 2019-05-28 14:19:08 22.5 45 28.5
002F13CD 2019-05-28 13:10:45 22.3 46 28.6
002F13CD 2019-05-28 12:02:22 21.9 45 28.5
002F13CD 2019-05-28 10:53:59 21.9 44 28.5
002F13CD 2019-05-28 09:45:33 21.2 46 28.6
002F13CD 2019-05-28 08:37:06 21 47 28.7
002F13CD 2019-05-28 07:28:37 21.2 44 28.7
002F13CD 2019-05-28 06:20:11 21.2 43 28.6
002F13CD 2019-05-28 05:11:44 21.2 43 28.7
002F13CD 2019-05-28 04:03:17 21.2 42 28.6
002F13CD 2019-05-28 02:54:50 21.3 42 28.6
002F13CD 2019-05-28 01:46:21 21.3 41 28.6
002F13CD 2019-05-28 00:37:55 21.4 41 28.6
002F13CD 2019-05-27 23:29:29 21.4 41 28.7
002F13CD 2019-05-27 22:21:02 21.7 41 28.6
002F13CD 2019-05-27 21:12:34 21.8 41 28.7
002F13CD 2019-05-27 20:04:09 21.9 40 28.5
002F13CD 2019-05-27 18:55:42 21.9 39 28.3
002F13CD 2019-05-27 17:47:17 22.3 38 28.3
002F13CD 2019-05-27 16:38:50 22.5 41 28
002F13CD 2019-05-27 15:30:23 22.1 41 28.4
002F13CD 2019-05-27 14:21:54 22.1 43 28.8
002F13CD 2019-05-27 13:13:25 21.9 44 28.3
002F13CD 2019-05-27 12:04:59 21.5 44 27
002F13CD 2019-05-27 10:56:33 21.7 46 10.9
002F13CD 2019-05-27 10:43:28 21.5 47 0